METAR AND TAF INFORMATION
METAR FOR BKPR
ADDS - METARS form results

(1727 UTC 22 October 2017)
Data provider http://aviationweather.gov/adds/metars/
 
METAR text: BKPR 221730Z 00000KT 9999 FEW040 BKN200 13/08 Q1013 NOSIG
Conditions at: BKPR (PRISHTINA , CS) observed 1730 UTC 22 October 2017
Temperature: 13.0°C (55°F)
Dewpoint: 8.0°C (46°F) [RH = 72%]
Pressure (altimeter): 29.91 inches Hg (1013.0 mb)
Winds: calm
Visibility: 6 or more miles (10+ km)
Ceiling: 20000 feet AGL
Clouds: few clouds at 4000 feet AGL
broken clouds at 20000 feet AGL
Weather: no significant weather observed at this time

METAR text: BKPR 221700Z 00000KT 9999 FEW040 BKN200 14/08 Q1013 NOSIG
Conditions at: BKPR (PRISHTINA , CS) observed 1700 UTC 22 October 2017
Temperature: 14.0°C (57°F)
Dewpoint: 8.0°C (46°F) [RH = 67%]
Pressure (altimeter): 29.91 inches Hg (1013.0 mb)
Winds: calm
Visibility: 6 or more miles (10+ km)
Ceiling: 20000 feet AGL
Clouds: few clouds at 4000 feet AGL
broken clouds at 20000 feet AGL
Weather: no significant weather observed at this time

METAR text: BKPR 221630Z VRB03KT 9999 FEW040 BKN200 15/08 Q1013 NOSIG
Conditions at: BKPR (PRISHTINA , CS) observed 1630 UTC 22 October 2017
Temperature: 15.0°C (59°F)
Dewpoint: 8.0°C (46°F) [RH = 63%]
Pressure (altimeter): 29.91 inches Hg (1013.0 mb)
Winds: variable direction winds at 3 MPH (3 knots; 1.6 m/s)
Visibility: 6 or more miles (10+ km)
Ceiling: 20000 feet AGL
Clouds: few clouds at 4000 feet AGL
broken clouds at 20000 feet AGL
Weather: no significant weather observed at this time

Forecast for: BKPR (PRISHTINA , CS)
Text: TAF BKPR 221730Z 2218/2318 18006KT 9999 SCT040 BKN080
Forecast period: 1800 UTC 22 October 2017 to 1000 UTC 23 October 2017
Forecast type: FROM: standard forecast or significant change
Winds: from the S (180 degrees) at 7 MPH (6 knots; 3.1 m/s)
Visibility: 6 or more miles (10+ km)
Ceiling: 8000 feet AGL
Clouds: scattered clouds at 4000 feet AGL
broken clouds at 8000 feet AGL
Weather: no significant weather forecast for this period
Text: TEMPO 2222/2309 5000 -RA BKN015 BKN040
Forecast period: 2200 UTC 22 October 2017 to 0900 UTC 23 October 2017
Forecast type: TEMPORARY: The following changes expected for less than half the time period
Visibility: 3 miles (5 km)
Ceiling: 1500 feet AGL
Clouds: broken clouds at 1500 feet AGL
broken clouds at 4000 feet AGL
Weather: -RA  (light rain)
Text: BECMG 2310/2312 35015KT 4000 RA
Forecast period: 1000 to 1800 UTC 23 October 2017
Forecast type: BECOMING: Conditions expected to become as follows by 1200 UTC 23 October 2017
Winds: from the N (350 degrees) at 17 MPH (15 knots; 7.8 m/s)
Visibility: 2.49 miles (4.01 km)
Ceiling: 8000 feet AGL
Clouds: scattered clouds at 4000 feet AGL
broken clouds at 8000 feet AGL
Weather: RA  (rain)
Text: TEMPO 2316/2318 35015G25KT
Forecast period: 1600 to 1800 UTC 23 October 2017
Forecast type: TEMPORARY: The following changes expected for less than half the time period
Winds: from the N (350 degrees) at 17 MPH (15 knots; 7.8 m/s)
gusting to 29 MPH (25 knots; 13.0 m/s)
Weather: no significant weather forecast for this period

 AIRPORT MAP

 RUNWAY INFORMATION
Runway 17 Runway length 8165 ft Runway width 148 ft
Runway elevation 1789 ft Runway displaced threshold 0 ft Runway heading 176
Runway 35 Runway length 8165 ft Runway width 148 ft
Runway elevation 1786 ft Runway displaced threshold 0 ft Runway heading 356

 AIRPORT FREQUENCIES
Type APP Name APP Frequency 118.775 MHZ
Type GND Name GND Frequency 118 MHZ
Type RMP Name RAMP OPR Frequency 136.8 MHZ
Type TWR Name TWR Frequency 120.125 MHZ

 AIRPORT NEAR NAVIGATION AIDS